sensor_id;sensor_type;location;lat;lon;timestamp;P1;durP1;ratioP1;P2;durP2;ratioP2
17199;SDS011;8716;52.268;20.968;2023-06-22T00:01:25;12.20;;;11.60;;
17199;SDS011;8716;52.268;20.968;2023-06-22T00:03:53;9.27;;;8.77;;
17199;SDS011;8716;52.268;20.968;2023-06-22T00:06:22;9.57;;;9.07;;
17199;SDS011;8716;52.268;20.968;2023-06-22T00:08:51;10.27;;;9.77;;
17199;SDS011;8716;52.268;20.968;2023-06-22T00:11:20;8.43;;;7.97;;
17199;SDS011;8716;52.268;20.968;2023-06-22T00:13:48;10.90;;;10.30;;
17199;SDS011;8716;52.268;20.968;2023-06-22T00:16:19;8.03;;;7.63;;
17199;SDS011;8716;52.268;20.968;2023-06-22T00:18:47;9.10;;;8.60;;
17199;SDS011;8716;52.268;20.968;2023-06-22T00:21:18;12.43;;;11.80;;
17199;SDS011;8716;52.268;20.968;2023-06-22T00:23:49;12.37;;;11.73;;
17199;SDS011;8716;52.268;20.968;2023-06-22T00:26:19;9.83;;;9.13;;
17199;SDS011;8716;52.268;20.968;2023-06-22T00:28:48;14.03;;;8.80;;
17199;SDS011;8716;52.268;20.968;2023-06-22T00:31:19;10.13;;;9.63;;
17199;SDS011;8716;52.268;20.968;2023-06-22T00:33:47;16.60;;;9.87;;
17199;SDS011;8716;52.268;20.968;2023-06-22T00:36:17;10.23;;;9.73;;
17199;SDS011;8716;52.268;20.968;2023-06-22T00:38:45;9.93;;;9.43;;
17199;SDS011;8716;52.268;20.968;2023-06-22T00:41:17;10.77;;;10.17;;
17199;SDS011;8716;52.268;20.968;2023-06-22T00:43:47;11.23;;;10.63;;
17199;SDS011;8716;52.268;20.968;2023-06-22T00:46:15;10.10;;;9.60;;
17199;SDS011;8716;52.268;20.968;2023-06-22T00:48:44;16.10;;;15.30;;
17199;SDS011;8716;52.268;20.968;2023-06-22T00:51:12;11.70;;;11.13;;
17199;SDS011;8716;52.268;20.968;2023-06-22T00:53:44;13.67;;;12.97;;
17199;SDS011;8716;52.268;20.968;2023-06-22T00:56:12;13.20;;;11.83;;
17199;SDS011;8716;52.268;20.968;2023-06-22T00:58:44;16.03;;;9.40;;
17199;SDS011;8716;52.268;20.968;2023-06-22T01:01:15;7.17;;;6.77;;
17199;SDS011;8716;52.268;20.968;2023-06-22T01:03:44;10.00;;;9.50;;
17199;SDS011;8716;52.268;20.968;2023-06-22T01:06:14;9.60;;;9.10;;
17199;SDS011;8716;52.268;20.968;2023-06-22T01:08:48;7.47;;;7.07;;
17199;SDS011;8716;52.268;20.968;2023-06-22T01:11:28;9.03;;;8.53;;
17199;SDS011;8716;52.268;20.968;2023-06-22T01:14:04;12.00;;;11.40;;
17199;SDS011;8716;52.268;20.968;2023-06-22T01:16:39;12.70;;;12.03;;
17199;SDS011;8716;52.268;20.968;2023-06-22T01:19:11;8.77;;;8.27;;
17199;SDS011;8716;52.268;20.968;2023-06-22T01:21:47;11.50;;;10.90;;
17199;SDS011;8716;52.268;20.968;2023-06-22T01:24:22;9.90;;;9.13;;
17199;SDS011;8716;52.268;20.968;2023-06-22T01:26:57;8.63;;;8.13;;
17199;SDS011;8716;52.268;20.968;2023-06-22T01:29:45;8.73;;;8.23;;
17199;SDS011;8716;52.268;20.968;2023-06-22T01:32:14;7.77;;;7.37;;
17199;SDS011;8716;52.268;20.968;2023-06-22T01:34:43;7.67;;;6.07;;
17199;SDS011;8716;52.268;20.968;2023-06-22T01:37:15;7.80;;;7.40;;
17199;SDS011;8716;52.268;20.968;2023-06-22T01:39:44;7.90;;;7.50;;
17199;SDS011;8716;52.268;20.968;2023-06-22T01:42:14;8.43;;;7.97;;
17199;SDS011;8716;52.268;20.968;2023-06-22T01:44:43;7.63;;;7.23;;
17199;SDS011;8716;52.268;20.968;2023-06-22T01:47:13;8.27;;;7.83;;
17199;SDS011;8716;52.268;20.968;2023-06-22T01:49:42;9.10;;;8.60;;
17199;SDS011;8716;52.268;20.968;2023-06-22T01:52:11;10.10;;;9.60;;
17199;SDS011;8716;52.268;20.968;2023-06-22T01:54:39;9.40;;;6.43;;
17199;SDS011;8716;52.268;20.968;2023-06-22T01:57:08;7.23;;;6.83;;
17199;SDS011;8716;52.268;20.968;2023-06-22T01:59:38;10.13;;;7.83;;
17199;SDS011;8716;52.268;20.968;2023-06-22T02:02:15;8.43;;;7.97;;
17199;SDS011;8716;52.268;20.968;2023-06-22T02:04:48;9.23;;;8.73;;
17199;SDS011;8716;52.268;20.968;2023-06-22T02:07:20;9.00;;;8.50;;
17199;SDS011;8716;52.268;20.968;2023-06-22T02:09:52;10.57;;;10.00;;
17199;SDS011;8716;52.268;20.968;2023-06-22T02:12:22;10.37;;;8.27;;
17199;SDS011;8716;52.268;20.968;2023-06-22T02:14:56;10.37;;;9.83;;
17199;SDS011;8716;52.268;20.968;2023-06-22T02:17:29;16.10;;;15.30;;
17199;SDS011;8716;52.268;20.968;2023-06-22T02:20:01;14.13;;;13.43;;
17199;SDS011;8716;52.268;20.968;2023-06-22T02:22:35;9.90;;;9.40;;
17199;SDS011;8716;52.268;20.968;2023-06-22T02:25:05;14.33;;;11.63;;
17199;SDS011;8716;52.268;20.968;2023-06-22T02:27:34;7.63;;;7.23;;
17199;SDS011;8716;52.268;20.968;2023-06-22T02:30:03;16.00;;;15.20;;
17199;SDS011;8716;52.268;20.968;2023-06-22T02:32:33;18.00;;;17.10;;
17199;SDS011;8716;52.268;20.968;2023-06-22T02:35:04;16.90;;;15.97;;
17199;SDS011;8716;52.268;20.968;2023-06-22T02:37:33;12.07;;;11.47;;
17199;SDS011;8716;52.268;20.968;2023-06-22T02:40:07;16.33;;;15.53;;
17199;SDS011;8716;52.268;20.968;2023-06-22T02:42:36;13.37;;;12.67;;
17199;SDS011;8716;52.268;20.968;2023-06-22T02:45:05;15.37;;;14.57;;
17199;SDS011;8716;52.268;20.968;2023-06-22T02:47:36;14.30;;;13.60;;
17199;SDS011;8716;52.268;20.968;2023-06-22T02:50:04;12.03;;;11.43;;
17199;SDS011;8716;52.268;20.968;2023-06-22T02:52:34;20.57;;;15.43;;
17199;SDS011;8716;52.268;20.968;2023-06-22T02:55:03;13.57;;;12.87;;
17199;SDS011;8716;52.268;20.968;2023-06-22T02:57:31;14.97;;;14.17;;
17199;SDS011;8716;52.268;20.968;2023-06-22T03:00:01;17.23;;;16.33;;
17199;SDS011;8716;52.268;20.968;2023-06-22T03:02:33;14.57;;;13.83;;
17199;SDS011;8716;52.268;20.968;2023-06-22T03:05:03;12.80;;;12.10;;
17199;SDS011;8716;52.268;20.968;2023-06-22T03:07:32;19.33;;;18.33;;
17199;SDS011;8716;52.268;20.968;2023-06-22T03:10:01;18.10;;;17.20;;
17199;SDS011;8716;52.268;20.968;2023-06-22T03:12:29;15.60;;;14.80;;
17199;SDS011;8716;52.268;20.968;2023-06-22T03:14:57;9.50;;;8.57;;
17199;SDS011;8716;52.268;20.968;2023-06-22T03:17:26;10.33;;;9.80;;
17199;SDS011;8716;52.268;20.968;2023-06-22T03:19:55;19.97;;;18.97;;
17199;SDS011;8716;52.268;20.968;2023-06-22T03:22:26;14.40;;;13.67;;
17199;SDS011;8716;52.268;20.968;2023-06-22T03:24:54;14.87;;;9.70;;
17199;SDS011;8716;52.268;20.968;2023-06-22T03:27:22;12.23;;;11.63;;
17199;SDS011;8716;52.268;20.968;2023-06-22T03:29:51;12.80;;;12.10;;
17199;SDS011;8716;52.268;20.968;2023-06-22T03:32:19;11.27;;;10.67;;
17199;SDS011;8716;52.268;20.968;2023-06-22T03:34:48;14.10;;;13.40;;
17199;SDS011;8716;52.268;20.968;2023-06-22T03:37:19;12.67;;;12.00;;
17199;SDS011;8716;52.268;20.968;2023-06-22T03:39:51;16.07;;;15.27;;
17199;SDS011;8716;52.268;20.968;2023-06-22T03:42:20;11.83;;;11.23;;
17199;SDS011;8716;52.268;20.968;2023-06-22T03:44:48;24.03;;;22.83;;
17199;SDS011;8716;52.268;20.968;2023-06-22T03:47:17;15.47;;;14.67;;
17199;SDS011;8716;52.268;20.968;2023-06-22T03:49:45;20.43;;;19.10;;
17199;SDS011;8716;52.268;20.968;2023-06-22T03:52:13;11.63;;;11.03;;
17199;SDS011;8716;52.268;20.968;2023-06-22T03:54:42;24.40;;;22.70;;
17199;SDS011;8716;52.268;20.968;2023-06-22T03:57:14;14.73;;;13.97;;
17199;SDS011;8716;52.268;20.968;2023-06-22T03:59:42;9.43;;;8.93;;
17199;SDS011;8716;52.268;20.968;2023-06-22T04:02:10;14.87;;;14.10;;
17199;SDS011;8716;52.268;20.968;2023-06-22T04:04:39;14.90;;;14.13;;
17199;SDS011;8716;52.268;20.968;2023-06-22T04:07:07;14.30;;;13.60;;
17199;SDS011;8716;52.268;20.968;2023-06-22T04:09:36;17.93;;;13.10;;
17199;SDS011;8716;52.268;20.968;2023-06-22T04:12:04;13.27;;;12.60;;
17199;SDS011;8716;52.268;20.968;2023-06-22T04:14:37;13.30;;;11.83;;
17199;SDS011;8716;52.268;20.968;2023-06-22T04:17:05;12.03;;;11.43;;
17199;SDS011;8716;52.268;20.968;2023-06-22T04:19:34;13.30;;;12.60;;
17199;SDS011;8716;52.268;20.968;2023-06-22T04:22:02;15.40;;;14.60;;
17199;SDS011;8716;52.268;20.968;2023-06-22T04:24:35;17.07;;;14.93;;
17199;SDS011;8716;52.268;20.968;2023-06-22T04:27:06;14.87;;;14.10;;
17199;SDS011;8716;52.268;20.968;2023-06-22T04:29:38;17.53;;;16.63;;
17199;SDS011;8716;52.268;20.968;2023-06-22T04:32:15;16.30;;;13.17;;
17199;SDS011;8716;52.268;20.968;2023-06-22T04:34:43;17.03;;;14.00;;
17199;SDS011;8716;52.268;20.968;2023-06-22T04:37:12;18.33;;;17.43;;
17199;SDS011;8716;52.268;20.968;2023-06-22T04:39:42;11.50;;;10.90;;
17199;SDS011;8716;52.268;20.968;2023-06-22T04:42:12;12.03;;;11.43;;
17199;SDS011;8716;52.268;20.968;2023-06-22T04:44:42;15.10;;;14.30;;
17199;SDS011;8716;52.268;20.968;2023-06-22T04:47:10;19.47;;;18.20;;
17199;SDS011;8716;52.268;20.968;2023-06-22T04:49:38;17.70;;;12.30;;
17199;SDS011;8716;52.268;20.968;2023-06-22T04:52:10;12.30;;;11.70;;
17199;SDS011;8716;52.268;20.968;2023-06-22T04:54:39;13.27;;;12.47;;
17199;SDS011;8716;52.268;20.968;2023-06-22T04:57:14;12.57;;;11.93;;
17199;SDS011;8716;52.268;20.968;2023-06-22T04:59:43;11.37;;;10.40;;
17199;SDS011;8716;52.268;20.968;2023-06-22T05:02:11;12.93;;;11.17;;
17199;SDS011;8716;52.268;20.968;2023-06-22T05:04:40;15.13;;;14.33;;
17199;SDS011;8716;52.268;20.968;2023-06-22T05:07:09;20.27;;;19.23;;
17199;SDS011;8716;52.268;20.968;2023-06-22T05:09:37;16.17;;;15.37;;
17199;SDS011;8716;52.268;20.968;2023-06-22T05:12:06;18.37;;;17.40;;
17199;SDS011;8716;52.268;20.968;2023-06-22T05:14:36;13.07;;;12.40;;
17199;SDS011;8716;52.268;20.968;2023-06-22T05:17:06;14.30;;;13.60;;
17199;SDS011;8716;52.268;20.968;2023-06-22T05:19:41;13.67;;;12.97;;
17199;SDS011;8716;52.268;20.968;2023-06-22T05:22:11;21.10;;;17.23;;
17199;SDS011;8716;52.268;20.968;2023-06-22T05:24:39;14.20;;;13.50;;
17199;SDS011;8716;52.268;20.968;2023-06-22T05:27:08;19.10;;;15.73;;
17199;SDS011;8716;52.268;20.968;2023-06-22T05:29:39;19.30;;;18.30;;
17199;SDS011;8716;52.268;20.968;2023-06-22T05:32:10;9.93;;;9.43;;
17199;SDS011;8716;52.268;20.968;2023-06-22T05:34:38;17.20;;;14.50;;
17199;SDS011;8716;52.268;20.968;2023-06-22T05:37:06;20.43;;;19.43;;
17199;SDS011;8716;52.268;20.968;2023-06-22T05:39:36;22.27;;;18.97;;
17199;SDS011;8716;52.268;20.968;2023-06-22T05:42:05;12.17;;;10.53;;
17199;SDS011;8716;52.268;20.968;2023-06-22T05:44:36;14.03;;;13.33;;
17199;SDS011;8716;52.268;20.968;2023-06-22T05:47:06;13.40;;;12.70;;
17199;SDS011;8716;52.268;20.968;2023-06-22T05:49:36;11.40;;;10.80;;
17199;SDS011;8716;52.268;20.968;2023-06-22T05:52:06;14.03;;;11.33;;
17199;SDS011;8716;52.268;20.968;2023-06-22T05:54:38;9.50;;;9.00;;
17199;SDS011;8716;52.268;20.968;2023-06-22T05:57:08;13.30;;;12.60;;
17199;SDS011;8716;52.268;20.968;2023-06-22T05:59:36;13.07;;;12.00;;
17199;SDS011;8716;52.268;20.968;2023-06-22T06:02:05;12.80;;;12.10;;
17199;SDS011;8716;52.268;20.968;2023-06-22T06:04:36;12.03;;;11.43;;
17199;SDS011;8716;52.268;20.968;2023-06-22T06:07:05;13.70;;;13.00;;
17199;SDS011;8716;52.268;20.968;2023-06-22T06:09:34;8.43;;;7.97;;
17199;SDS011;8716;52.268;20.968;2023-06-22T06:12:05;11.60;;;11.00;;
17199;SDS011;8716;52.268;20.968;2023-06-22T06:14:36;11.53;;;9.70;;
17199;SDS011;8716;52.268;20.968;2023-06-22T06:17:04;14.60;;;13.87;;
17199;SDS011;8716;52.268;20.968;2023-06-22T06:19:36;13.43;;;12.73;;
17199;SDS011;8716;52.268;20.968;2023-06-22T06:22:04;10.90;;;10.30;;
17199;SDS011;8716;52.268;20.968;2023-06-22T06:24:33;10.70;;;10.10;;
17199;SDS011;8716;52.268;20.968;2023-06-22T06:27:01;26.33;;;15.00;;
17199;SDS011;8716;52.268;20.968;2023-06-22T06:29:31;18.20;;;17.30;;
17199;SDS011;8716;52.268;20.968;2023-06-22T06:31:59;14.37;;;11.43;;
17199;SDS011;8716;52.268;20.968;2023-06-22T06:34:28;11.03;;;8.83;;
17199;SDS011;8716;52.268;20.968;2023-06-22T06:36:58;8.97;;;8.37;;
17199;SDS011;8716;52.268;20.968;2023-06-22T06:39:26;12.13;;;11.53;;
17199;SDS011;8716;52.268;20.968;2023-06-22T06:41:57;11.50;;;10.90;;
17199;SDS011;8716;52.268;20.968;2023-06-22T06:44:28;13.77;;;10.80;;
17199;SDS011;8716;52.268;20.968;2023-06-22T06:46:57;9.03;;;8.53;;
17199;SDS011;8716;52.268;20.968;2023-06-22T06:49:27;12.43;;;11.80;;
17199;SDS011;8716;52.268;20.968;2023-06-22T06:51:55;11.77;;;11.17;;
17199;SDS011;8716;52.268;20.968;2023-06-22T06:54:25;9.83;;;8.83;;
17199;SDS011;8716;52.268;20.968;2023-06-22T06:56:54;13.97;;;13.27;;
17199;SDS011;8716;52.268;20.968;2023-06-22T06:59:22;15.23;;;14.33;;
17199;SDS011;8716;52.268;20.968;2023-06-22T07:01:53;12.37;;;10.73;;
17199;SDS011;8716;52.268;20.968;2023-06-22T07:04:21;11.93;;;9.10;;
17199;SDS011;8716;52.268;20.968;2023-06-22T07:06:50;13.60;;;12.90;;
17199;SDS011;8716;52.268;20.968;2023-06-22T07:09:19;8.10;;;7.70;;
17199;SDS011;8716;52.268;20.968;2023-06-22T07:11:47;11.07;;;10.47;;
17199;SDS011;8716;52.268;20.968;2023-06-22T07:14:16;13.03;;;10.43;;
17199;SDS011;8716;52.268;20.968;2023-06-22T07:16:44;9.20;;;8.70;;
17199;SDS011;8716;52.268;20.968;2023-06-22T07:19:12;10.93;;;10.33;;
17199;SDS011;8716;52.268;20.968;2023-06-22T07:21:43;10.40;;;9.87;;
17199;SDS011;8716;52.268;20.968;2023-06-22T07:24:11;12.93;;;10.83;;
17199;SDS011;8716;52.268;20.968;2023-06-22T07:26:41;9.97;;;9.47;;
17199;SDS011;8716;52.268;20.968;2023-06-22T07:29:12;13.10;;;10.90;;
17199;SDS011;8716;52.268;20.968;2023-06-22T07:31:40;11.00;;;9.20;;
17199;SDS011;8716;52.268;20.968;2023-06-22T07:34:09;11.37;;;9.73;;
17199;SDS011;8716;52.268;20.968;2023-06-22T07:36:37;9.80;;;7.87;;
17199;SDS011;8716;52.268;20.968;2023-06-22T07:39:06;7.73;;;7.30;;
17199;SDS011;8716;52.268;20.968;2023-06-22T07:41:34;9.23;;;7.97;;
17199;SDS011;8716;52.268;20.968;2023-06-22T07:44:04;17.43;;;11.00;;
17199;SDS011;8716;52.268;20.968;2023-06-22T07:46:32;10.90;;;10.33;;
17199;SDS011;8716;52.268;20.968;2023-06-22T07:49:03;7.27;;;6.87;;
17199;SDS011;8716;52.268;20.968;2023-06-22T07:51:31;9.30;;;8.70;;
17199;SDS011;8716;52.268;20.968;2023-06-22T07:54:00;9.83;;;9.33;;
17199;SDS011;8716;52.268;20.968;2023-06-22T07:56:28;9.40;;;8.90;;
17199;SDS011;8716;52.268;20.968;2023-06-22T07:58:57;7.90;;;7.47;;
17199;SDS011;8716;52.268;20.968;2023-06-22T08:01:28;8.33;;;7.90;;
17199;SDS011;8716;52.268;20.968;2023-06-22T08:03:57;8.23;;;7.80;;
17199;SDS011;8716;52.268;20.968;2023-06-22T08:06:25;9.47;;;7.27;;
17199;SDS011;8716;52.268;20.968;2023-06-22T08:08:56;7.50;;;7.03;;
17199;SDS011;8716;52.268;20.968;2023-06-22T08:11:25;8.77;;;8.27;;
17199;SDS011;8716;52.268;20.968;2023-06-22T08:13:54;7.87;;;7.47;;
17199;SDS011;8716;52.268;20.968;2023-06-22T08:16:28;9.53;;;9.03;;
17199;SDS011;8716;52.268;20.968;2023-06-22T08:18:57;8.13;;;7.73;;
17199;SDS011;8716;52.268;20.968;2023-06-22T08:21:25;9.43;;;8.93;;
17199;SDS011;8716;52.268;20.968;2023-06-22T08:23:54;7.90;;;7.50;;
17199;SDS011;8716;52.268;20.968;2023-06-22T08:26:23;7.70;;;7.30;;
17199;SDS011;8716;52.268;20.968;2023-06-22T08:28:51;7.23;;;6.83;;
17199;SDS011;8716;52.268;20.968;2023-06-22T08:31:19;6.53;;;6.13;;
17199;SDS011;8716;52.268;20.968;2023-06-22T08:33:49;6.87;;;5.37;;
17199;SDS011;8716;52.268;20.968;2023-06-22T08:36:17;7.23;;;6.83;;
17199;SDS011;8716;52.268;20.968;2023-06-22T08:38:46;5.80;;;5.50;;
17199;SDS011;8716;52.268;20.968;2023-06-22T08:41:18;5.00;;;4.70;;
17199;SDS011;8716;52.268;20.968;2023-06-22T08:43:46;6.87;;;6.47;;
17199;SDS011;8716;52.268;20.968;2023-06-22T08:46:14;5.13;;;4.83;;
17199;SDS011;8716;52.268;20.968;2023-06-22T08:48:46;5.83;;;5.50;;
17199;SDS011;8716;52.268;20.968;2023-06-22T08:51:16;6.13;;;5.80;;
17199;SDS011;8716;52.268;20.968;2023-06-22T08:53:44;5.90;;;5.60;;
17199;SDS011;8716;52.268;20.968;2023-06-22T08:56:12;7.80;;;7.40;;
17199;SDS011;8716;52.268;20.968;2023-06-22T08:58:40;7.30;;;6.90;;
17199;SDS011;8716;52.268;20.968;2023-06-22T09:01:09;6.80;;;6.40;;
17199;SDS011;8716;52.268;20.968;2023-06-22T09:03:39;5.40;;;5.10;;
17199;SDS011;8716;52.268;20.968;2023-06-22T09:06:08;4.67;;;4.37;;
17199;SDS011;8716;52.268;20.968;2023-06-22T09:08:38;6.00;;;5.70;;
17199;SDS011;8716;52.268;20.968;2023-06-22T09:11:06;5.63;;;5.33;;
17199;SDS011;8716;52.268;20.968;2023-06-22T09:13:34;4.87;;;4.57;;
17199;SDS011;8716;52.268;20.968;2023-06-22T09:16:03;6.17;;;5.87;;
17199;SDS011;8716;52.268;20.968;2023-06-22T09:18:33;6.20;;;5.90;;
17199;SDS011;8716;52.268;20.968;2023-06-22T09:21:02;6.53;;;6.13;;
17199;SDS011;8716;52.268;20.968;2023-06-22T09:23:31;7.00;;;6.60;;
17199;SDS011;8716;52.268;20.968;2023-06-22T09:26:00;6.77;;;6.37;;
17199;SDS011;8716;52.268;20.968;2023-06-22T09:28:30;6.47;;;6.07;;
17199;SDS011;8716;52.268;20.968;2023-06-22T09:30:59;7.80;;;7.40;;
17199;SDS011;8716;52.268;20.968;2023-06-22T09:33:30;7.30;;;6.90;;
17199;SDS011;8716;52.268;20.968;2023-06-22T09:35:58;8.00;;;7.60;;
17199;SDS011;8716;52.268;20.968;2023-06-22T09:38:29;6.90;;;6.50;;
17199;SDS011;8716;52.268;20.968;2023-06-22T09:40:57;6.60;;;6.20;;
17199;SDS011;8716;52.268;20.968;2023-06-22T09:43:30;6.50;;;6.10;;
17199;SDS011;8716;52.268;20.968;2023-06-22T09:46:01;6.37;;;6.00;;
17199;SDS011;8716;52.268;20.968;2023-06-22T09:48:29;4.47;;;4.17;;
17199;SDS011;8716;52.268;20.968;2023-06-22T09:50:58;7.10;;;6.70;;
17199;SDS011;8716;52.268;20.968;2023-06-22T09:53:26;7.20;;;6.00;;
17199;SDS011;8716;52.268;20.968;2023-06-22T09:55:55;8.87;;;7.73;;
17199;SDS011;8716;52.268;20.968;2023-06-22T09:58:23;7.47;;;7.07;;
17199;SDS011;8716;52.268;20.968;2023-06-22T10:00:53;5.53;;;5.27;;
17199;SDS011;8716;52.268;20.968;2023-06-22T10:03:21;7.33;;;6.93;;
17199;SDS011;8716;52.268;20.968;2023-06-22T10:05:50;4.90;;;4.60;;
17199;SDS011;8716;52.268;20.968;2023-06-22T10:08:20;5.23;;;4.93;;
17199;SDS011;8716;52.268;20.968;2023-06-22T10:10:49;6.10;;;5.80;;
17199;SDS011;8716;52.268;20.968;2023-06-22T10:13:19;6.23;;;5.90;;
17199;SDS011;8716;52.268;20.968;2023-06-22T10:15:50;10.10;;;9.03;;
17199;SDS011;8716;52.268;20.968;2023-06-22T10:18:19;6.03;;;5.73;;
17199;SDS011;8716;52.268;20.968;2023-06-22T10:20:50;5.10;;;4.80;;
17199;SDS011;8716;52.268;20.968;2023-06-22T10:23:19;6.27;;;5.93;;
17199;SDS011;8716;52.268;20.968;2023-06-22T10:25:48;8.30;;;7.90;;
17199;SDS011;8716;52.268;20.968;2023-06-22T10:28:16;7.20;;;6.80;;
17199;SDS011;8716;52.268;20.968;2023-06-22T10:30:47;9.10;;;8.50;;
17199;SDS011;8716;52.268;20.968;2023-06-22T10:33:15;6.80;;;6.40;;
17199;SDS011;8716;52.268;20.968;2023-06-22T10:35:45;7.83;;;7.43;;
17199;SDS011;8716;52.268;20.968;2023-06-22T10:38:14;6.67;;;6.27;;
17199;SDS011;8716;52.268;20.968;2023-06-22T10:40:42;6.50;;;6.00;;
17199;SDS011;8716;52.268;20.968;2023-06-22T10:43:11;5.50;;;5.20;;
17199;SDS011;8716;52.268;20.968;2023-06-22T10:45:39;7.20;;;6.80;;
17199;SDS011;8716;52.268;20.968;2023-06-22T10:48:07;8.20;;;7.80;;
17199;SDS011;8716;52.268;20.968;2023-06-22T10:50:36;6.17;;;5.83;;
17199;SDS011;8716;52.268;20.968;2023-06-22T10:53:06;8.07;;;7.67;;
17199;SDS011;8716;52.268;20.968;2023-06-22T10:55:34;7.73;;;7.33;;
17199;SDS011;8716;52.268;20.968;2023-06-22T10:58:22;8.97;;;8.47;;
17199;SDS011;8716;52.268;20.968;2023-06-22T11:00:50;8.93;;;7.67;;
17199;SDS011;8716;52.268;20.968;2023-06-22T11:03:18;9.27;;;6.80;;
17199;SDS011;8716;52.268;20.968;2023-06-22T11:05:46;6.50;;;6.10;;
17199;SDS011;8716;52.268;20.968;2023-06-22T11:08:16;5.70;;;5.40;;
17199;SDS011;8716;52.268;20.968;2023-06-22T11:10:44;6.87;;;6.47;;
17199;SDS011;8716;52.268;20.968;2023-06-22T11:13:13;6.50;;;6.10;;
17199;SDS011;8716;52.268;20.968;2023-06-22T11:15:43;6.73;;;6.33;;
17199;SDS011;8716;52.268;20.968;2023-06-22T11:18:12;8.77;;;6.93;;
17199;SDS011;8716;52.268;20.968;2023-06-22T11:20:40;9.70;;;6.17;;
17199;SDS011;8716;52.268;20.968;2023-06-22T11:23:09;6.90;;;6.50;;
17199;SDS011;8716;52.268;20.968;2023-06-22T11:25:39;7.77;;;7.37;;
17199;SDS011;8716;52.268;20.968;2023-06-22T11:28:09;20.13;;;7.20;;
17199;SDS011;8716;52.268;20.968;2023-06-22T11:30:37;7.30;;;6.90;;
17199;SDS011;8716;52.268;20.968;2023-06-22T11:33:08;6.77;;;6.37;;
17199;SDS011;8716;52.268;20.968;2023-06-22T11:35:36;5.97;;;5.67;;
17199;SDS011;8716;52.268;20.968;2023-06-22T11:38:04;7.67;;;6.77;;
17199;SDS011;8716;52.268;20.968;2023-06-22T11:40:36;7.57;;;7.13;;
17199;SDS011;8716;52.268;20.968;2023-06-22T11:43:06;8.07;;;7.63;;
17199;SDS011;8716;52.268;20.968;2023-06-22T11:45:35;6.97;;;6.57;;
17199;SDS011;8716;52.268;20.968;2023-06-22T11:48:06;13.70;;;6.50;;
17199;SDS011;8716;52.268;20.968;2023-06-22T11:50:34;5.60;;;5.30;;
17199;SDS011;8716;52.268;20.968;2023-06-22T11:53:03;7.67;;;7.23;;
17199;SDS011;8716;52.268;20.968;2023-06-22T11:55:31;6.13;;;5.83;;
17199;SDS011;8716;52.268;20.968;2023-06-22T11:57:59;6.03;;;5.73;;
17199;SDS011;8716;52.268;20.968;2023-06-22T12:00:34;6.07;;;5.77;;
17199;SDS011;8716;52.268;20.968;2023-06-22T12:03:16;7.40;;;7.00;;
17199;SDS011;8716;52.268;20.968;2023-06-22T12:05:44;6.90;;;6.50;;
17199;SDS011;8716;52.268;20.968;2023-06-22T12:08:13;5.97;;;4.93;;
17199;SDS011;8716;52.268;20.968;2023-06-22T12:10:41;6.80;;;6.40;;
17199;SDS011;8716;52.268;20.968;2023-06-22T12:13:09;8.17;;;7.77;;
17199;SDS011;8716;52.268;20.968;2023-06-22T12:15:39;7.70;;;7.30;;
17199;SDS011;8716;52.268;20.968;2023-06-22T12:18:07;7.37;;;6.97;;
17199;SDS011;8716;52.268;20.968;2023-06-22T12:20:36;6.13;;;5.83;;
17199;SDS011;8716;52.268;20.968;2023-06-22T12:23:04;7.97;;;7.57;;
17199;SDS011;8716;52.268;20.968;2023-06-22T12:25:32;5.80;;;5.50;;
17199;SDS011;8716;52.268;20.968;2023-06-22T12:28:01;9.07;;;8.20;;
17199;SDS011;8716;52.268;20.968;2023-06-22T12:30:32;7.10;;;6.70;;
17199;SDS011;8716;52.268;20.968;2023-06-22T12:33:01;7.40;;;7.00;;
17199;SDS011;8716;52.268;20.968;2023-06-22T12:35:30;6.33;;;5.97;;
17199;SDS011;8716;52.268;20.968;2023-06-22T12:37:58;5.83;;;5.53;;
17199;SDS011;8716;52.268;20.968;2023-06-22T12:40:26;11.53;;;9.50;;
17199;SDS011;8716;52.268;20.968;2023-06-22T12:42:55;8.10;;;7.70;;
17199;SDS011;8716;52.268;20.968;2023-06-22T12:45:23;6.10;;;5.80;;
17199;SDS011;8716;52.268;20.968;2023-06-22T12:47:55;5.70;;;5.40;;
17199;SDS011;8716;52.268;20.968;2023-06-22T12:50:25;7.27;;;6.87;;
17199;SDS011;8716;52.268;20.968;2023-06-22T12:52:54;7.20;;;6.80;;
17199;SDS011;8716;52.268;20.968;2023-06-22T12:55:22;6.23;;;5.90;;
17199;SDS011;8716;52.268;20.968;2023-06-22T12:57:51;12.40;;;9.10;;
17199;SDS011;8716;52.268;20.968;2023-06-22T13:00:19;9.87;;;9.37;;
17199;SDS011;8716;52.268;20.968;2023-06-22T13:02:48;6.10;;;5.80;;
17199;SDS011;8716;52.268;20.968;2023-06-22T13:05:18;5.63;;;5.33;;
17199;SDS011;8716;52.268;20.968;2023-06-22T13:07:50;8.10;;;6.03;;
17199;SDS011;8716;52.268;20.968;2023-06-22T13:10:18;6.27;;;5.93;;
17199;SDS011;8716;52.268;20.968;2023-06-22T13:12:47;6.77;;;6.37;;
17199;SDS011;8716;52.268;20.968;2023-06-22T13:15:15;5.90;;;5.60;;
17199;SDS011;8716;52.268;20.968;2023-06-22T13:17:43;8.93;;;8.10;;
17199;SDS011;8716;52.268;20.968;2023-06-22T13:20:12;16.17;;;7.33;;
17199;SDS011;8716;52.268;20.968;2023-06-22T13:22:40;7.13;;;6.73;;
17199;SDS011;8716;52.268;20.968;2023-06-22T13:25:11;8.33;;;6.37;;
17199;SDS011;8716;52.268;20.968;2023-06-22T13:27:40;7.70;;;7.30;;
17199;SDS011;8716;52.268;20.968;2023-06-22T13:30:09;8.13;;;6.50;;
17199;SDS011;8716;52.268;20.968;2023-06-22T13:32:41;5.90;;;5.60;;
17199;SDS011;8716;52.268;20.968;2023-06-22T13:35:10;8.07;;;7.67;;
17199;SDS011;8716;52.268;20.968;2023-06-22T13:37:41;6.00;;;5.70;;
17199;SDS011;8716;52.268;20.968;2023-06-22T13:40:09;6.07;;;5.77;;
17199;SDS011;8716;52.268;20.968;2023-06-22T13:42:39;6.50;;;6.03;;
17199;SDS011;8716;52.268;20.968;2023-06-22T13:45:08;11.00;;;7.00;;
17199;SDS011;8716;52.268;20.968;2023-06-22T13:47:37;8.30;;;7.87;;
17199;SDS011;8716;52.268;20.968;2023-06-22T13:50:06;6.83;;;6.43;;
17199;SDS011;8716;52.268;20.968;2023-06-22T13:52:34;8.93;;;7.50;;
17199;SDS011;8716;52.268;20.968;2023-06-22T13:55:03;6.53;;;6.17;;
17199;SDS011;8716;52.268;20.968;2023-06-22T13:57:33;8.60;;;8.00;;
17199;SDS011;8716;52.268;20.968;2023-06-22T14:00:04;7.80;;;7.40;;
17199;SDS011;8716;52.268;20.968;2023-06-22T14:02:37;6.20;;;5.80;;
17199;SDS011;8716;52.268;20.968;2023-06-22T14:05:06;8.53;;;8.03;;
17199;SDS011;8716;52.268;20.968;2023-06-22T14:07:35;7.10;;;6.70;;
17199;SDS011;8716;52.268;20.968;2023-06-22T14:10:07;7.27;;;6.87;;
17199;SDS011;8716;52.268;20.968;2023-06-22T14:12:37;9.17;;;8.03;;
17199;SDS011;8716;52.268;20.968;2023-06-22T14:15:06;7.27;;;6.87;;
17199;SDS011;8716;52.268;20.968;2023-06-22T14:17:34;8.00;;;7.60;;
17199;SDS011;8716;52.268;20.968;2023-06-22T14:20:03;6.57;;;6.17;;
17199;SDS011;8716;52.268;20.968;2023-06-22T14:22:34;6.80;;;6.40;;
17199;SDS011;8716;52.268;20.968;2023-06-22T14:25:04;7.07;;;6.67;;
17199;SDS011;8716;52.268;20.968;2023-06-22T14:27:33;5.70;;;5.40;;
17199;SDS011;8716;52.268;20.968;2023-06-22T14:30:03;6.40;;;6.03;;
17199;SDS011;8716;52.268;20.968;2023-06-22T14:32:32;8.17;;;7.77;;
17199;SDS011;8716;52.268;20.968;2023-06-22T14:35:01;6.63;;;6.23;;
17199;SDS011;8716;52.268;20.968;2023-06-22T14:37:29;9.20;;;8.70;;
17199;SDS011;8716;52.268;20.968;2023-06-22T14:39:57;6.73;;;6.33;;
17199;SDS011;8716;52.268;20.968;2023-06-22T14:42:28;6.00;;;5.70;;
17199;SDS011;8716;52.268;20.968;2023-06-22T14:44:57;6.00;;;5.70;;
17199;SDS011;8716;52.268;20.968;2023-06-22T14:47:30;6.37;;;6.00;;
17199;SDS011;8716;52.268;20.968;2023-06-22T14:49:58;7.20;;;5.63;;
17199;SDS011;8716;52.268;20.968;2023-06-22T14:52:27;7.60;;;7.20;;